Terminal Aerodrome Forecast
Issued by NWS Jacksonville, FL

Home | Current Version | Previous Version | Text Only | Print | Product List | Glossary On
Versions: 1 2 3 4 5 6 7 8 9 10 11 12 13 14 15 16 17 18 19 20 21 22 23 24 25 26 27
029
FTUS42 KJAX 221433 AAB
TAFSSI
TAF AMD
KSSI 221433Z 2215/2312 VRB10G35KT 1SM +TSRA OVC015CB
     FM221530 21018G25KT 4SM TSRA BKN025CB OVC050
     FM221700 21023G33KT P6SM VCTS SCT025CB BKN050
      TEMPO 2220/2224 3SM TSRA BKN020CB OVC050
     FM230000 21020G30KT P6SM VCTS SCT025CB BKN100
     FM230100 23015G22KT P6SM BKN050=

USA.gov is the U.S. government's official web portal to all federal, state and local government web resources and services.